createdAt,value
2018-12-27T13:48:20.972Z,16.70
2018-12-27T14:02:07.154Z,17.10
2018-12-27T14:29:16.218Z,18.00
2018-12-27T14:31:59.622Z,18.10
2018-12-27T14:34:45.934Z,18.20
2018-12-27T14:37:36.992Z,18.20
2018-12-27T14:46:20.856Z,18.40
2018-12-27T14:48:54.670Z,18.50
2018-12-27T14:54:52.581Z,18.60
2018-12-27T14:57:35.531Z,18.70
2018-12-27T15:00:18.645Z,18.80
2018-12-27T15:03:01.709Z,18.90
2018-12-27T15:08:38.727Z,19.00
2018-12-27T15:11:22.964Z,19.10
2018-12-27T15:14:05.751Z,19.10
2018-12-27T15:16:52.667Z,19.20
2018-12-27T15:19:36.641Z,19.20
2018-12-27T15:22:10.311Z,19.30
2018-12-27T15:27:54.679Z,19.40
2018-12-27T15:30:42.610Z,19.60
2018-12-27T15:33:28.685Z,19.60
2018-12-27T15:36:11.671Z,19.60
2018-12-27T15:38:55.162Z,19.70
2018-12-27T15:41:38.700Z,19.70
2018-12-27T15:44:21.540Z,19.80
2018-12-27T16:52:32.630Z,21.80
2018-12-27T16:55:17.575Z,21.80
2018-12-27T16:58:00.633Z,21.90
2018-12-27T17:00:44.274Z,21.90
2018-12-27T17:03:27.839Z,22.00
2018-12-27T17:06:15.662Z,22.10
2018-12-27T17:09:00.453Z,22.10
2018-12-27T17:11:46.107Z,22.20
2018-12-27T17:17:24.187Z,22.30
2018-12-27T17:20:07.786Z,22.30
2018-12-27T17:22:50.983Z,22.40
2018-12-27T17:25:33.859Z,22.50
2018-12-27T17:28:17.748Z,22.60
2018-12-27T17:31:02.276Z,22.70
2018-12-27T17:33:45.840Z,22.80
2018-12-27T17:36:28.780Z,22.80
2018-12-27T17:39:16.804Z,22.90
2018-12-27T17:42:00.177Z,22.90
2018-12-27T17:44:47.729Z,22.90
2018-12-27T17:47:32.524Z,23.00
2018-12-27T17:50:17.211Z,23.00
2018-12-27T17:53:00.986Z,23.00
2018-12-27T17:55:48.702Z,23.10
2018-12-27T17:58:32.268Z,23.30
2018-12-27T18:01:40.650Z,23.40
2018-12-27T18:04:19.480Z,23.50
2018-12-27T18:09:53.175Z,23.70
2018-12-27T18:15:32.571Z,23.90
2018-12-27T18:18:20.713Z,23.90
2018-12-27T18:21:04.845Z,24.00
2018-12-27T18:23:47.828Z,24.10
2018-12-27T18:26:36.715Z,24.20
2018-12-27T18:29:22.140Z,24.30
2018-12-27T18:32:06.962Z,24.30
2018-12-27T18:34:50.806Z,24.40
2018-12-27T18:37:37.834Z,24.40
2018-12-27T18:43:31.818Z,24.60
2018-12-27T18:49:25.827Z,24.80
2018-12-27T18:52:10.231Z,25.00
2018-12-27T18:54:45.988Z,25.10
2018-12-27T19:09:49.895Z,25.60
2018-12-27T19:15:36.936Z,25.90
2018-12-27T19:19:11.195Z,26.00
2018-12-27T19:21:11.445Z,26.10
2018-12-27T19:30:08.304Z,26.30
2018-12-27T19:32:52.953Z,26.20
2018-12-27T19:38:58.290Z,26.40
2018-12-27T19:41:41.833Z,26.70
2018-12-27T19:44:25.321Z,26.80
2018-12-27T19:47:12.468Z,26.90
2018-12-27T19:49:56.192Z,26.90
2018-12-27T19:52:39.981Z,26.80
2018-12-27T19:55:23.331Z,26.90
2018-12-27T19:58:07.036Z,27.00
2018-12-27T20:00:40.512Z,27.10
2018-12-27T20:06:29.031Z,27.10
2018-12-27T20:09:15.646Z,27.10
2018-12-27T20:11:58.635Z,27.20
2018-12-27T20:14:42.015Z,27.50
2018-12-27T20:17:25.319Z,27.50
2018-12-27T20:20:12.932Z,27.50
2018-12-27T20:22:55.931Z,27.40
2018-12-27T20:25:39.401Z,27.50
2018-12-27T20:28:22.035Z,27.30
2018-12-27T20:31:06.821Z,27.20
2018-12-27T20:33:49.943Z,27.30
2018-12-27T20:36:34.166Z,27.40
2018-12-27T20:39:17.632Z,27.50
2018-12-27T20:42:04.185Z,27.50
2018-12-27T20:44:48.861Z,27.60
2018-12-27T20:47:32.449Z,27.80
2018-12-27T20:50:16.744Z,27.90
2018-12-27T20:52:59.994Z,27.90
2018-12-27T20:55:43.061Z,28.00
2018-12-27T20:58:26.845Z,28.00
2018-12-27T21:01:12.245Z,27.90
2018-12-27T21:03:46.784Z,27.90
2018-12-27T21:09:45.962Z,27.90
2018-12-27T21:12:29.163Z,27.90
2018-12-27T21:15:12.268Z,27.90
2018-12-27T21:17:54.935Z,27.90
2018-12-27T21:20:41.103Z,27.80
2018-12-27T21:23:23.898Z,27.70
2018-12-27T21:26:08.732Z,27.60
2018-12-27T21:28:52.655Z,27.60
2018-12-27T21:31:35.711Z,27.60
2018-12-27T21:34:20.770Z,27.60
2018-12-27T21:37:08.166Z,27.70
2018-12-27T21:39:52.063Z,27.70
2018-12-27T21:42:38.883Z,27.70
2018-12-27T21:45:22.257Z,27.70
2018-12-27T21:48:09.662Z,27.70
2018-12-27T21:53:43.748Z,27.60
2018-12-27T21:56:29.689Z,27.50
2018-12-27T21:59:13.556Z,27.40
2018-12-27T22:04:54.878Z,27.30
2018-12-27T22:07:59.520Z,27.10
2018-12-27T22:13:24.653Z,27.00
2018-12-27T22:19:08.042Z,26.80
2018-12-27T22:22:16.947Z,26.60
2018-12-27T22:25:02.926Z,26.40
2018-12-27T22:30:45.905Z,26.10
2018-12-27T22:45:57.876Z,24.80
2018-12-27T22:54:16.729Z,24.10
2018-12-27T23:03:08.921Z,23.60
2018-12-27T23:05:50.682Z,23.40
2018-12-27T23:08:43.028Z,23.30
2018-12-27T23:11:29.780Z,23.10
2018-12-27T23:21:04.036Z,22.80
2018-12-27T23:23:30.717Z,22.70
2018-12-27T23:35:10.590Z,22.30
2018-12-27T23:37:54.577Z,22.30
2018-12-27T23:40:42.469Z,22.20
2018-12-27T23:43:43.816Z,22.10
2018-12-27T23:46:27.880Z,22.10
2018-12-27T23:49:11.465Z,22.10
2018-12-27T23:51:59.340Z,22.00
2018-12-27T23:54:46.156Z,21.90
